Polaris — JD2797 — position and weather

sailwx.info

Track history (hours):
 
Tides and Currents Weather Stations Pressure Air Temp Water Temp Dewpoint Dewpoint Depression Visibility Wind Speed Wind Dir Waves Ship Positions

Polaris

Last reported at 2015-Jan-29 08:33 UTC. Time now 2015-Jan-29 18:23 UTC.
Position N 35°25' E 139°45'.

Length 30 m; draft 2.6 m.

Type: Pilot. MMSI: 431000764.

Date/timePositionNaut miles runAvg speedWind from/ knotsBaromVisibWave heightAir tempDewpointWater temp
2015-Jan-29 08:33N 35°25' E 139°45'1111.2
2015-Jan-29 07:33N 35°14' E 139°47'2 2.4
2015-Jan-29 06:33N 35°12' E 139°46'1414.0
2015-Jan-29 05:33N 35°26' E 139°42'2 2.2
2015-Jan-29 04:33N 35°27' E 139°40'1 0.1
2015-Jan-28 23:33N 35°27' E 139°40'1313.3
2015-Jan-28 22:33N 35°15' E 139°45'8 7.8
2015-Jan-28 21:34N 35°22' E 139°42'5 4.8
2015-Jan-28 20:34N 35°27' E 139°43'2 2.5
2015-Jan-28 19:33N 35°27' E 139°40'  
2015-Jan-25 11:10N 35°27' E 139°40'5 7.6
2015-Jan-25 10:33N 35°22' E 139°41'8 8.1
2015-Jan-25 09:33N 35°15' E 139°46'1211.8
2015-Jan-25 08:34N 35°27' E 139°43'3 3.0
2015-Jan-25 07:33N 35°27' E 139°40'0 0.0
2015-Jan-24 22:27N 35°27' E 139°40'7 8.2
2015-Jan-24 21:33N 35°21' E 139°45'1110.5
2015-Jan-24 20:33N 35°10' E 139°47'9 9.2
2015-Jan-24 19:34N 35°19' E 139°43'8 8.5
2015-Jan-24 18:33N 35°27' E 139°40'0 0.0
2015-Jan-24 17:33N 35°27' E 139°40'0 0.0
2015-Jan-24 16:34N 35°27' E 139°40'0 0.0
2015-Jan-24 15:34N 35°27' E 139°40'0 0.0
2015-Jan-24 14:34N 35°27' E 139°40'10 9.8
2015-Jan-24 13:33N 35°17' E 139°44'1 1.3
2015-Jan-24 12:33N 35°19' E 139°43'8 8.3
2015-Jan-24 11:34N 35°27' E 139°42'2 0.1
2015-Jan-23 18:22N 35°27' E 139°40'3 3.9
2015-Jan-23 17:33N 35°24' E 139°42'1211.6
2015-Jan-23 16:33N 35°13' E 139°46'1212.1
2015-Jan-23 15:33N 35°25' E 139°43'4 3.5
2015-Jan-23 14:33N 35°28' E 139°45'5 5.0
2015-Jan-23 13:33N 35°27' E 139°39'1 0.7
2015-Jan-23 12:33N 35°27' E 139°40'0 0.0
2015-Jan-23 11:33N 35°27' E 139°40'0 0.0
2015-Jan-23 10:33N 35°27' E 139°40'0 0.0
2015-Jan-23 09:33N 35°27' E 139°40'0 0.0
2015-Jan-23 08:33N 35°27' E 139°40'0 0.0
2015-Jan-23 07:33N 35°27' E 139°40'0 0.0
2015-Jan-23 06:33N 35°27' E 139°40'0 0.0
2015-Jan-23 05:34N 35°27' E 139°40'0 0.0
2015-Jan-23 04:33N 35°27' E 139°40'0 0.0
2015-Jan-23 03:33N 35°27' E 139°40'0 0.0
2015-Jan-23 02:33N 35°27' E 139°40'0 0.0
2015-Jan-23 01:33N 35°27' E 139°40'0 0.0
2015-Jan-23 00:33N 35°27' E 139°40'2 2.0
2015-Jan-22 23:33N 35°26' E 139°42'1211.5
2015-Jan-22 22:33N 35°15' E 139°45'8 7.8
2015-Jan-22 21:33N 35°22' E 139°42'4 4.0
2015-Jan-22 20:33N 35°26' E 139°43'3 2.7
2015-Jan-22 19:33N 35°27' E 139°40'0 0.0
2015-Jan-22 18:33N 35°27' E 139°40'0 0.0
2015-Jan-22 17:33N 35°27' E 139°40'0 0.0
2015-Jan-22 16:33N 35°27' E 139°40'0 0.0
2015-Jan-22 15:33N 35°27' E 139°40'0 0.0
2015-Jan-22 14:33N 35°27' E 139°40'0 0.0
2015-Jan-22 13:33N 35°27' E 139°40'0 0.0
2015-Jan-22 12:33N 35°27' E 139°40'0 0.0
2015-Jan-22 11:33N 35°27' E 139°40'0 0.0
2015-Jan-22 10:33N 35°27' E 139°40'0 0.0
2015-Jan-22 09:33N 35°27' E 139°40'  
2015-Jan-19 13:24N 35°27' E 139°40'5 6.4
2015-Jan-19 12:33N 35°21' E 139°41'9 9.5
2015-Jan-19 11:33N 35°13' E 139°46'1212.2
2015-Jan-19 10:33N 35°25' E 139°43'1 1.3
2015-Jan-19 09:34N 35°26' E 139°43'3 2.8
2015-Jan-19 08:33N 35°27' E 139°40'  
Track history (hours):
 
Tides and Currents Weather Stations Pressure Air Temp Water Temp Dewpoint Dewpoint Depression Visibility Wind Speed Wind Dir Waves Ship Positions

Polaris

Last reported at 2015-Jan-29 08:33 UTC. Time now 2015-Jan-29 18:23 UTC.
Position N 35°25' E 139°45'.

Length 30 m; draft 2.6 m.

Type: Pilot. MMSI: 431000764.

Date/timePositionNaut miles runAvg speedWind from/ knotsBaromVisibWave heightAir tempDewpointWater temp
2015-Jan-29 08:33N 35°25' E 139°45'1111.2
2015-Jan-29 07:33N 35°14' E 139°47'2 2.4
2015-Jan-29 06:33N 35°12' E 139°46'1414.0
2015-Jan-29 05:33N 35°26' E 139°42'2 2.2
2015-Jan-29 04:33N 35°27' E 139°40'1 0.1
2015-Jan-28 23:33N 35°27' E 139°40'1313.3
2015-Jan-28 22:33N 35°15' E 139°45'8 7.8
2015-Jan-28 21:34N 35°22' E 139°42'5 4.8
2015-Jan-28 20:34N 35°27' E 139°43'2 2.5
2015-Jan-28 19:33N 35°27' E 139°40'  
2015-Jan-25 11:10N 35°27' E 139°40'5 7.6
2015-Jan-25 10:33N 35°22' E 139°41'8 8.1
2015-Jan-25 09:33N 35°15' E 139°46'1211.8
2015-Jan-25 08:34N 35°27' E 139°43'3 3.0
2015-Jan-25 07:33N 35°27' E 139°40'0 0.0
2015-Jan-24 22:27N 35°27' E 139°40'7 8.2
2015-Jan-24 21:33N 35°21' E 139°45'1110.5
2015-Jan-24 20:33N 35°10' E 139°47'9 9.2
2015-Jan-24 19:34N 35°19' E 139°43'8 8.5
2015-Jan-24 18:33N 35°27' E 139°40'0 0.0
2015-Jan-24 17:33N 35°27' E 139°40'0 0.0
2015-Jan-24 16:34N 35°27' E 139°40'0 0.0
2015-Jan-24 15:34N 35°27' E 139°40'0 0.0
2015-Jan-24 14:34N 35°27' E 139°40'10 9.8
2015-Jan-24 13:33N 35°17' E 139°44'1 1.3
2015-Jan-24 12:33N 35°19' E 139°43'8 8.3
2015-Jan-24 11:34N 35°27' E 139°42'2 0.1
2015-Jan-23 18:22N 35°27' E 139°40'3 3.9
2015-Jan-23 17:33N 35°24' E 139°42'1211.6
2015-Jan-23 16:33N 35°13' E 139°46'1212.1
2015-Jan-23 15:33N 35°25' E 139°43'4 3.5
2015-Jan-23 14:33N 35°28' E 139°45'5 5.0
2015-Jan-23 13:33N 35°27' E 139°39'1 0.7
2015-Jan-23 12:33N 35°27' E 139°40'0 0.0
2015-Jan-23 11:33N 35°27' E 139°40'0 0.0
2015-Jan-23 10:33N 35°27' E 139°40'0 0.0
2015-Jan-23 09:33N 35°27' E 139°40'0 0.0
2015-Jan-23 08:33N 35°27' E 139°40'0 0.0
2015-Jan-23 07:33N 35°27' E 139°40'0 0.0
2015-Jan-23 06:33N 35°27' E 139°40'0 0.0
2015-Jan-23 05:34N 35°27' E 139°40'0 0.0
2015-Jan-23 04:33N 35°27' E 139°40'0 0.0
2015-Jan-23 03:33N 35°27' E 139°40'0 0.0
2015-Jan-23 02:33N 35°27' E 139°40'0 0.0
2015-Jan-23 01:33N 35°27' E 139°40'0 0.0
2015-Jan-23 00:33N 35°27' E 139°40'2 2.0
2015-Jan-22 23:33N 35°26' E 139°42'1211.5
2015-Jan-22 22:33N 35°15' E 139°45'8 7.8
2015-Jan-22 21:33N 35°22' E 139°42'4 4.0
2015-Jan-22 20:33N 35°26' E 139°43'3 2.7
2015-Jan-22 19:33N 35°27' E 139°40'0 0.0
2015-Jan-22 18:33N 35°27' E 139°40'0 0.0
2015-Jan-22 17:33N 35°27' E 139°40'0 0.0
2015-Jan-22 16:33N 35°27' E 139°40'0 0.0
2015-Jan-22 15:33N 35°27' E 139°40'0 0.0
2015-Jan-22 14:33N 35°27' E 139°40'0 0.0
2015-Jan-22 13:33N 35°27' E 139°40'0 0.0
2015-Jan-22 12:33N 35°27' E 139°40'0 0.0
2015-Jan-22 11:33N 35°27' E 139°40'0 0.0
2015-Jan-22 10:33N 35°27' E 139°40'0 0.0
2015-Jan-22 09:33N 35°27' E 139°40'  
2015-Jan-19 13:24N 35°27' E 139°40'5 6.4
2015-Jan-19 12:33N 35°21' E 139°41'9 9.5
2015-Jan-19 11:33N 35°13' E 139°46'1212.2
2015-Jan-19 10:33N 35°25' E 139°43'1 1.3
2015-Jan-19 09:34N 35°26' E 139°43'3 2.8
2015-Jan-19 08:33N 35°27' E 139°40'  

Dump ship's entire track history